Time;durP1;ratioP1;P1;durP2;ratioP2;P2;SDS_P1;SDS_P2;PMS_P1;PMS_P2;Temp;Humidity;BMP_temperature;BMP_pressure;BME280_temperature;BME280_humidity;BME280_pressure;Samples;Min_cycle;Max_cycle;Signal;HPM_P1;HPM_P2
2021/09/24 00:01:49;;;;;;;6.93;5.37;;;12.30;99.90;;;;;;4821001;29;20570;-90
2021/09/24 00:04:15;;;;;;;6.27;5.67;;;12.20;99.90;;;;;;4824949;29;20194;-89
2021/09/24 00:06:42;;;;;;;5.90;5.07;;;12.20;99.90;;;;;;4835008;29;20198;-89
2021/09/24 00:09:09;;;;;;;5.10;4.70;;;12.10;99.90;;;;;;4820819;29;20863;-90
2021/09/24 00:11:39;;;;;;;6.10;4.53;;;12.10;99.90;;;;;;4821182;29;20981;-90
2021/09/24 00:14:09;;;;;;;5.70;5.17;;;12.00;99.90;;;;;;4835358;29;21460;-91
2021/09/24 00:16:37;;;;;;;6.00;5.30;;;12.00;99.90;;;;;;4819966;29;20562;-89
2021/09/24 00:19:04;;;;;;;5.40;4.90;;;12.00;99.90;;;;;;4823725;29;20499;-90
2021/09/24 00:21:29;;;;;;;5.70;5.00;;;12.10;99.90;;;;;;4834729;29;20531;-90
2021/09/24 00:24:10;;;;;;;7.03;5.90;;;12.00;99.90;;;;;;4819482;29;20463;-90
2021/09/24 00:26:36;;;;;;;6.00;5.40;;;12.00;99.90;;;;;;4826642;29;20194;-89
2021/09/24 00:29:01;;;;;;;4.60;4.20;;;12.00;99.90;;;;;;4825206;29;20458;-89
2021/09/24 00:31:34;;;;;;;5.37;4.87;;;12.00;99.90;;;;;;4840810;29;20222;-90
2021/09/24 00:34:00;;;;;;;6.43;5.03;;;11.80;99.90;;;;;;4822622;29;20685;-90
2021/09/24 00:36:26;;;;;;;5.33;4.83;;;11.90;99.90;;;;;;4821810;29;20451;-90
2021/09/24 00:38:52;;;;;;;7.17;4.50;;;12.00;99.90;;;;;;4833979;29;20336;-90
2021/09/24 00:41:17;;;;;;;5.73;5.23;;;11.90;99.90;;;;;;4823371;29;20202;-90
2021/09/24 00:43:43;;;;;;;6.03;4.67;;;11.80;99.90;;;;;;4820945;29;21061;-89
2021/09/24 00:46:09;;;;;;;4.50;4.10;;;12.00;99.90;;;;;;4834745;29;20214;-90
2021/09/24 00:48:34;;;;;;;4.83;4.43;;;11.90;99.90;;;;;;4820905;29;21097;-91
2021/09/24 00:51:00;;;;;;;8.10;5.00;;;11.90;99.90;;;;;;4822507;29;20225;-91
2021/09/24 00:53:26;;;;;;;5.63;4.87;;;12.00;99.90;;;;;;4838414;29;20190;-90
2021/09/24 00:55:52;;;;;;;4.73;4.33;;;11.90;99.90;;;;;;4818830;29;20693;-89
2021/09/24 00:58:18;;;;;;;6.13;5.00;;;11.90;99.90;;;;;;4823261;29;20198;-89
2021/09/24 01:00:43;;;;;;;5.50;5.00;;;11.80;99.90;;;;;;4822717;29;20222;-90
2021/09/24 01:03:09;;;;;;;5.07;4.57;;;11.80;99.90;;;;;;4820796;29;20658;-90
2021/09/24 01:05:35;;;;;;;6.37;5.73;;;11.80;99.90;;;;;;4821211;29;20190;-90
2021/09/24 01:08:01;;;;;;;5.30;4.80;;;11.80;99.90;;;;;;4820515;29;20243;-89
2021/09/24 01:10:27;;;;;;;6.23;5.57;;;11.80;99.90;;;;;;4824335;29;20229;-90
2021/09/24 01:12:53;;;;;;;6.30;5.00;;;11.80;99.90;;;;;;4820600;29;20484;-89
2021/09/24 01:15:20;;;;;;;5.57;4.97;;;11.70;99.90;;;;;;4822892;29;21059;-90
2021/09/24 01:17:47;;;;;;;5.63;5.13;;;11.50;99.90;;;;;;4826782;29;20619;-90
2021/09/24 01:20:15;;;;;;;5.70;5.10;;;11.60;99.90;;;;;;4820209;29;20860;-89
2021/09/24 01:22:41;;;;;;;5.40;4.57;;;11.50;99.90;;;;;;4842309;29;20459;-90
2021/09/24 01:25:08;;;;;;;5.70;5.03;;;11.30;99.90;;;;;;4838625;29;21111;-90
2021/09/24 01:27:35;;;;;;;5.50;4.97;;;11.40;99.90;;;;;;4824631;29;20186;-89
2021/09/24 01:30:01;;;;;;;5.17;4.67;;;11.50;99.90;;;;;;4827958;29;20488;-90
2021/09/24 01:32:30;;;;;;;5.30;4.80;;;11.40;99.90;;;;;;4825640;29;21330;-90
2021/09/24 01:34:58;;;;;;;5.37;4.87;;;11.40;99.90;;;;;;4824958;29;20831;-91
2021/09/24 01:37:24;;;;;;;5.60;4.90;;;11.40;99.90;;;;;;4824717;29;20459;-91
2021/09/24 01:39:49;;;;;;;5.07;4.57;;;11.30;99.90;;;;;;4828739;29;20473;-91
2021/09/24 01:42:18;;;;;;;6.60;5.10;;;11.30;99.90;;;;;;4830563;29;20227;-91
2021/09/24 01:44:46;;;;;;;5.60;5.10;;;11.40;99.90;;;;;;4836770;29;20205;-91
2021/09/24 01:47:15;;;;;;;5.07;4.53;;;11.40;99.90;;;;;;4824819;29;20816;-91
2021/09/24 01:49:41;;;;;;;5.07;4.57;;;11.30;99.90;;;;;;4824356;29;20194;-92
2021/09/24 01:52:07;;;;;;;5.13;4.70;;;11.30;99.90;;;;;;4838560;29;20486;-91
2021/09/24 01:54:44;;;;;;;6.83;5.03;;;11.20;99.90;;;;;;4827820;29;20493;-91
2021/09/24 01:57:11;;;;;;;5.70;4.67;;;11.30;99.90;;;;;;4824410;29;20526;-91
2021/09/24 01:59:38;;;;;;;5.73;5.13;;;11.30;99.90;;;;;;4835918;29;20462;-90
2021/09/24 02:02:03;;;;;;;5.87;4.60;;;11.20;99.90;;;;;;4847745;29;20826;-90
2021/09/24 02:04:29;;;;;;;5.43;4.90;;;11.10;99.90;;;;;;4824710;29;20459;-89
2021/09/24 02:06:59;;;;;;;5.90;5.30;;;11.10;99.90;;;;;;4823591;29;20306;-90
2021/09/24 02:09:25;;;;;;;6.27;4.83;;;11.10;99.90;;;;;;4838721;29;20482;-89
2021/09/24 02:11:56;;;;;;;5.80;5.07;;;11.00;99.90;;;;;;4823806;29;20554;-89
2021/09/24 02:14:24;;;;;;;5.27;4.77;;;11.10;99.90;;;;;;4826059;29;20198;-88
2021/09/24 02:16:50;;;;;;;5.73;5.10;;;11.10;99.90;;;;;;4837661;29;20465;-89
2021/09/24 02:19:18;;;;;;;6.53;5.20;;;11.00;99.90;;;;;;4826021;29;20203;-88
2021/09/24 02:21:47;;;;;;;6.53;5.30;;;11.10;99.90;;;;;;4817107;29;20190;-90
2021/09/24 02:24:13;;;;;;;5.53;5.03;;;11.10;99.90;;;;;;4819428;29;20852;-90
2021/09/24 02:26:39;;;;;;;7.23;5.77;;;11.10;99.90;;;;;;4823414;29;20190;-89
2021/09/24 02:29:15;;;;;;;6.63;5.63;;;11.00;99.90;;;;;;4830437;29;20463;-89
2021/09/24 02:31:41;;;;;;;5.03;4.63;;;11.00;99.90;;;;;;4837990;29;20897;-90
2021/09/24 02:34:08;;;;;;;5.83;5.13;;;10.90;99.90;;;;;;4837776;29;20465;-91
2021/09/24 02:36:34;;;;;;;6.07;5.40;;;10.90;99.90;;;;;;4837024;29;20936;-90
2021/09/24 02:39:00;;;;;;;5.70;5.20;;;10.90;99.90;;;;;;4836826;29;20443;-89
2021/09/24 02:41:26;;;;;;;6.27;5.20;;;10.90;99.90;;;;;;4821918;29;20467;-89
2021/09/24 02:43:51;;;;;;;5.63;5.13;;;10.90;99.90;;;;;;4821437;29;20214;-89
2021/09/24 02:46:36;;;;;;;6.40;5.80;;;10.90;99.90;;;;;;4819449;29;20471;-90
2021/09/24 02:49:01;;;;;;;5.70;5.20;;;10.90;99.90;;;;;;4833752;29;20305;-90
2021/09/24 02:51:29;;;;;;;6.97;5.60;;;11.00;99.90;;;;;;4816844;29;20491;-91
2021/09/24 02:53:55;;;;;;;6.60;5.53;;;11.00;99.90;;;;;;4822924;29;20221;-91
2021/09/24 02:56:23;;;;;;;7.30;6.60;;;11.00;99.90;;;;;;4837476;29;20447;-91
2021/09/24 02:58:51;;;;;;;7.43;6.73;;;11.00;99.90;;;;;;4828289;29;20203;-91
2021/09/24 03:01:27;;;;;;;6.43;5.70;;;11.00;99.90;;;;;;4828017;29;20459;-91
2021/09/24 03:03:53;;;;;;;6.50;5.73;;;11.00;99.90;;;;;;4821840;29;20456;-89
2021/09/24 03:06:26;;;;;;;9.13;5.90;;;11.00;99.90;;;;;;4840593;29;20532;-90
2021/09/24 03:09:15;;;;;;;;;;;;;;;;;;;;;
2021/09/24 03:11:50;;;;;;;7.20;6.13;;;11.00;99.90;;;;;;4823304;29;20538;-91
2021/09/24 03:14:16;;;;;;;7.03;6.33;;;11.00;99.90;;;;;;4823909;29;21051;-90
2021/09/24 03:16:58;;;;;;;6.80;6.10;;;10.90;99.90;;;;;;4839130;29;20562;-90
2021/09/24 03:19:29;;;;;;;7.67;5.80;;;10.90;99.90;;;;;;4836954;29;20448;-90
2021/09/24 03:21:58;;;;;;;7.10;6.30;;;10.90;99.90;;;;;;4829836;29;20463;-90
2021/09/24 03:24:24;;;;;;;6.80;5.80;;;11.00;99.90;;;;;;4829568;29;20454;-90
2021/09/24 03:26:50;;;;;;;6.80;5.67;;;10.90;99.90;;;;;;4826445;29;20455;-91
2021/09/24 03:29:16;;;;;;;6.60;5.93;;;10.80;99.90;;;;;;4839523;29;20628;-91
2021/09/24 03:31:42;;;;;;;7.13;6.43;;;10.70;99.90;;;;;;4811669;29;20226;-91
2021/09/24 03:34:09;;;;;;;6.40;5.47;;;10.80;99.90;;;;;;4806280;29;20194;-91
2021/09/24 03:36:36;;;;;;;6.10;5.00;;;10.90;99.90;;;;;;4820916;29;20454;-93
2021/09/24 03:39:10;;;;;;;7.20;6.50;;;10.80;99.90;;;;;;4823272;29;20976;-92
2021/09/24 03:41:36;;;;;;;7.33;6.63;;;10.70;99.90;;;;;;4823253;29;20467;-92
2021/09/24 03:44:01;;;;;;;6.37;5.80;;;10.80;99.90;;;;;;4821356;29;20830;-91
2021/09/24 03:46:33;;;;;;;5.80;5.20;;;10.70;99.90;;;;;;4826555;29;20195;-91
2021/09/24 03:49:16;;;;;;;7.23;5.90;;;10.70;99.90;;;;;;4825780;29;20761;-91
2021/09/24 03:51:48;;;;;;;7.33;5.50;;;10.70;99.90;;;;;;4821809;29;20483;-92
2021/09/24 03:54:13;;;;;;;5.90;5.23;;;10.70;99.90;;;;;;4821264;29;20477;-91
2021/09/24 03:56:39;;;;;;;6.30;5.67;;;10.70;99.90;;;;;;4828466;29;20621;-93
2021/09/24 03:59:05;;;;;;;6.03;5.50;;;10.60;99.90;;;;;;4823857;29;20288;-93
2021/09/24 04:01:31;;;;;;;9.30;5.60;;;10.50;99.90;;;;;;4818913;29;20254;-92
2021/09/24 04:03:56;;;;;;;6.00;5.47;;;10.40;99.90;;;;;;4821241;29;20210;-91
2021/09/24 04:06:22;;;;;;;6.20;5.70;;;10.30;99.90;;;;;;4819484;29;20435;-91
2021/09/24 04:08:48;;;;;;;6.37;5.77;;;10.20;99.90;;;;;;4828594;29;20197;-92
2021/09/24 04:11:14;;;;;;;9.90;5.20;;;10.20;99.90;;;;;;4822403;29;20682;-89
2021/09/24 04:13:39;;;;;;;6.30;5.67;;;10.20;99.90;;;;;;4823869;29;20199;-89
2021/09/24 04:16:05;;;;;;;6.67;5.97;;;10.20;99.90;;;;;;4818913;29;20797;-90
2021/09/24 04:18:31;;;;;;;6.80;5.80;;;10.10;99.90;;;;;;4825733;29;20233;-90
2021/09/24 04:20:56;;;;;;;7.70;6.27;;;10.10;99.90;;;;;;4836872;29;20567;-91
2021/09/24 04:23:22;;;;;;;9.63;6.07;;;10.10;99.90;;;;;;4821585;29;20203;-90
2021/09/24 04:25:48;;;;;;;7.47;6.23;;;10.00;99.90;;;;;;4837339;29;20823;-91
2021/09/24 04:28:14;;;;;;;7.17;5.50;;;10.00;99.90;;;;;;4822665;29;20194;-91
2021/09/24 04:30:39;;;;;;;5.93;5.33;;;9.80;99.90;;;;;;4822225;29;20222;-91
2021/09/24 04:33:06;;;;;;;7.67;6.13;;;9.70;99.90;;;;;;4838585;29;20193;-91
2021/09/24 04:35:31;;;;;;;6.33;5.73;;;9.70;99.90;;;;;;4835004;29;20218;-91
2021/09/24 04:37:57;;;;;;;5.93;5.30;;;9.60;99.90;;;;;;4822683;29;20592;-92
2021/09/24 04:40:23;;;;;;;6.17;5.57;;;9.60;99.90;;;;;;4824185;29;21210;-92
2021/09/24 04:42:49;;;;;;;7.50;6.70;;;9.60;99.90;;;;;;4838080;29;20294;-92
2021/09/24 04:45:14;;;;;;;9.83;7.10;;;9.70;99.90;;;;;;4824060;29;20210;-91
2021/09/24 04:47:41;;;;;;;9.33;6.30;;;9.70;99.90;;;;;;4821710;29;20190;-91
2021/09/24 04:50:11;;;;;;;7.13;6.30;;;9.60;99.90;;;;;;4838101;29;20209;-94
2021/09/24 04:52:49;;;;;;;6.00;5.40;;;9.60;99.90;;;;;;4848619;29;20509;-93
2021/09/24 04:55:18;;;;;;;7.37;6.60;;;9.60;99.90;;;;;;4820168;29;20475;-91
2021/09/24 04:58:08;;;;;;;6.27;5.67;;;9.60;99.90;;;;;;4827431;29;20463;-91
2021/09/24 05:00:57;;;;;;;6.47;5.80;;;9.60;99.90;;;;;;4849488;29;20454;-91
2021/09/24 05:03:24;;;;;;;6.03;5.43;;;9.60;99.90;;;;;;4834102;29;20470;-90
2021/09/24 05:05:49;;;;;;;6.80;6.10;;;9.50;99.90;;;;;;4830550;29;21118;-91
2021/09/24 05:08:50;;;;;;;7.47;6.00;;;9.60;99.90;;;;;;4816687;29;20522;-92
2021/09/24 05:11:33;;;;;;;7.67;6.33;;;9.60;99.90;;;;;;4824609;29;20542;-91
2021/09/24 05:13:59;;;;;;;8.10;6.93;;;9.60;99.90;;;;;;4831799;29;20443;-92
2021/09/24 05:19:25;;;;;;;7.07;6.10;;;9.60;99.90;;;;;;4839215;29;20736;-89
2021/09/24 05:21:51;;;;;;;8.63;6.23;;;9.70;99.90;;;;;;4828991;29;20547;-89
2021/09/24 05:24:20;;;;;;;7.57;6.40;;;9.80;99.90;;;;;;4828068;29;20575;-85
2021/09/24 05:26:47;;;;;;;8.03;6.70;;;9.70;99.90;;;;;;4844290;29;20217;-85
2021/09/24 05:29:12;;;;;;;7.03;6.30;;;9.80;99.90;;;;;;4845475;29;21917;-86
2021/09/24 05:31:38;;;;;;;6.57;5.87;;;9.80;99.90;;;;;;4832430;29;20491;-86
2021/09/24 05:34:04;;;;;;;9.50;6.27;;;9.80;99.90;;;;;;4829931;29;20210;-85
2021/09/24 05:36:31;;;;;;;7.23;6.20;;;9.90;99.90;;;;;;4842103;29;20190;-87
2021/09/24 05:38:57;;;;;;;8.63;7.17;;;10.00;99.90;;;;;;4845638;29;20467;-87
2021/09/24 05:41:23;;;;;;;8.17;6.80;;;10.10;99.90;;;;;;4845758;29;20485;-86
2021/09/24 05:43:50;;;;;;;7.17;6.40;;;10.10;99.90;;;;;;4829182;29;20447;-86
2021/09/24 05:46:20;;;;;;;8.07;7.00;;;10.20;99.90;;;;;;4845382;29;20199;-86
2021/09/24 05:48:49;;;;;;;7.10;6.40;;;10.30;99.90;;;;;;4845443;29;20466;-94
2021/09/24 05:51:19;;;;;;;19.00;17.07;;;10.40;99.90;;;;;;4830265;29;20855;-87
2021/09/24 05:53:44;;;;;;;11.90;10.23;;;10.40;99.90;;;;;;4845546;29;20789;-87
2021/09/24 05:56:19;;;;;;;9.73;7.10;;;10.50;99.90;;;;;;4829938;29;20458;-87
2021/09/24 05:58:44;;;;;;;6.63;6.03;;;10.40;99.90;;;;;;4846588;29;20269;-88
2021/09/24 06:01:14;;;;;;;6.70;6.07;;;10.50;99.90;;;;;;4842830;29;21178;-87
2021/09/24 06:03:39;;;;;;;6.40;5.80;;;10.50;99.90;;;;;;4828931;29;20279;-88
2021/09/24 06:06:06;;;;;;;6.53;5.93;;;10.50;99.90;;;;;;4833510;29;21084;-87
2021/09/24 06:08:33;;;;;;;7.10;5.83;;;10.50;99.90;;;;;;4842875;29;20211;-87
2021/09/24 06:11:01;;;;;;;9.13;6.33;;;10.60;99.90;;;;;;4845636;29;20629;-88
2021/09/24 06:13:27;;;;;;;7.50;6.50;;;10.60;99.90;;;;;;4830968;29;21150;-89
2021/09/24 06:15:52;;;;;;;8.63;5.50;;;10.60;99.90;;;;;;4845371;29;20767;-88
2021/09/24 06:18:18;;;;;;;9.10;7.30;;;10.60;99.90;;;;;;4841698;29;20214;-87
2021/09/24 06:20:44;;;;;;;7.20;6.50;;;10.80;99.90;;;;;;4832387;29;20190;-87
2021/09/24 06:23:10;;;;;;;7.20;5.83;;;10.80;99.90;;;;;;4843766;29;20571;-87
2021/09/24 06:25:36;;;;;;;7.83;6.40;;;10.70;99.90;;;;;;4828525;29;20252;-87
2021/09/24 06:28:02;;;;;;;6.97;6.27;;;10.70;99.90;;;;;;4841402;29;20978;-88
2021/09/24 06:30:34;;;;;;;7.63;6.80;;;10.90;99.90;;;;;;4844177;29;20456;-88
2021/09/24 06:33:00;;;;;;;8.50;6.67;;;11.00;99.90;;;;;;4837215;29;20851;-89
2021/09/24 06:35:26;;;;;;;7.83;6.67;;;11.20;99.90;;;;;;4847632;29;20439;-91
2021/09/24 06:37:52;;;;;;;9.17;7.07;;;11.20;99.90;;;;;;4831042;29;21151;-91
2021/09/24 06:40:18;;;;;;;6.60;5.70;;;11.50;99.90;;;;;;4827249;29;20301;-90
2021/09/24 06:42:44;;;;;;;9.40;6.57;;;11.70;99.90;;;;;;4832040;29;20871;-90
2021/09/24 06:45:13;;;;;;;8.20;6.63;;;11.80;99.90;;;;;;4831044;29;20292;-92
2021/09/24 06:47:41;;;;;;;6.90;5.97;;;11.90;99.90;;;;;;4827758;29;20203;-90
2021/09/24 06:50:07;;;;;;;7.37;6.57;;;12.00;99.90;;;;;;4830971;29;20458;-91
2021/09/24 06:52:33;;;;;;;7.40;6.63;;;12.10;99.90;;;;;;4841597;29;20494;-91
2021/09/24 06:54:59;;;;;;;7.20;6.50;;;12.40;99.90;;;;;;4846447;29;20772;-91
2021/09/24 06:57:25;;;;;;;8.43;6.43;;;12.40;99.90;;;;;;4845268;29;20576;-90
2021/09/24 06:59:53;;;;;;;9.10;6.77;;;12.40;99.90;;;;;;4829268;29;20450;-90
2021/09/24 07:02:18;;;;;;;8.53;7.40;;;12.50;99.90;;;;;;4828845;29;20729;-92
2021/09/24 07:04:46;;;;;;;7.03;6.37;;;12.70;99.90;;;;;;4826944;29;21159;-90
2021/09/24 07:07:12;;;;;;;8.93;6.73;;;12.80;99.90;;;;;;4846919;29;20217;-91
2021/09/24 07:09:38;;;;;;;8.00;6.93;;;13.00;99.90;;;;;;4828442;29;21068;-90
2021/09/24 07:12:04;;;;;;;8.17;6.90;;;13.20;99.90;;;;;;4826705;29;20313;-89
2021/09/24 07:14:31;;;;;;;7.47;6.77;;;13.20;99.90;;;;;;4844022;29;20223;-90
2021/09/24 07:16:58;;;;;;;7.03;6.43;;;13.30;99.90;;;;;;4832335;29;20527;-88
2021/09/24 07:19:23;;;;;;;7.83;7.03;;;13.50;99.90;;;;;;4830865;29;20429;-88
2021/09/24 07:21:49;;;;;;;7.73;7.03;;;13.60;99.90;;;;;;4842439;29;20883;-88
2021/09/24 07:24:17;;;;;;;10.10;7.20;;;13.70;99.90;;;;;;4829664;29;20632;-89
2021/09/24 07:26:43;;;;;;;9.93;7.40;;;13.80;99.90;;;;;;4830667;29;20200;-89
2021/09/24 07:29:11;;;;;;;7.73;6.97;;;13.90;99.90;;;;;;4841861;29;20495;-89
2021/09/24 07:31:37;;;;;;;8.50;7.60;;;14.00;99.90;;;;;;4843380;29;20534;-88
2021/09/24 07:34:04;;;;;;;9.63;8.60;;;14.00;99.90;;;;;;4841434;29;20473;-89
2021/09/24 07:36:30;;;;;;;8.73;7.77;;;14.30;99.90;;;;;;4843267;29;20451;-89
2021/09/24 07:39:14;;;;;;;7.93;7.23;;;14.50;99.90;;;;;;4827134;29;21296;-89
2021/09/24 07:41:39;;;;;;;7.83;6.87;;;14.60;99.90;;;;;;4830601;29;20210;-90
2021/09/24 07:44:05;;;;;;;6.93;6.27;;;14.70;99.90;;;;;;4846261;29;20449;-89
2021/09/24 07:46:34;;;;;;;6.70;6.10;;;14.90;99.90;;;;;;4827268;29;20203;-89
2021/09/24 07:49:00;;;;;;;6.37;5.77;;;14.90;99.90;;;;;;4844100;29;20443;-92
2021/09/24 07:51:26;;;;;;;17.10;15.47;;;15.00;99.90;;;;;;4840152;29;20544;-91
2021/09/24 07:53:51;;;;;;;55.63;50.67;;;14.90;99.90;;;;;;4826337;29;20207;-91
2021/09/24 07:56:17;;;;;;;7.30;6.60;;;15.10;99.90;;;;;;4841844;29;20773;-90
2021/09/24 07:58:43;;;;;;;7.60;6.40;;;15.40;99.90;;;;;;4848283;29;20244;-91
2021/09/24 08:01:09;;;;;;;6.40;5.80;;;15.60;99.90;;;;;;4836615;29;20227;-90
2021/09/24 08:03:35;;;;;;;6.20;5.60;;;15.70;99.90;;;;;;4848184;29;20447;-89
2021/09/24 08:06:02;;;;;;;5.77;5.27;;;15.80;99.90;;;;;;4828244;29;20206;-90
2021/09/24 08:08:28;;;;;;;8.17;5.77;;;15.80;99.90;;;;;;4844673;29;20451;-89
2021/09/24 08:10:54;;;;;;;6.37;5.70;;;15.70;99.90;;;;;;4843030;29;20553;-91
2021/09/24 08:13:20;;;;;;;7.03;6.20;;;15.80;99.90;;;;;;4829890;29;21029;-89
2021/09/24 08:15:46;;;;;;;5.40;5.00;;;15.90;99.90;;;;;;4828757;29;20450;-89
2021/09/24 08:18:16;;;;;;;6.97;6.27;;;16.00;99.90;;;;;;4827315;29;20210;-89
2021/09/24 08:20:43;;;;;;;6.83;6.13;;;16.10;99.90;;;;;;4843547;29;20526;-88
2021/09/24 08:23:09;;;;;;;8.80;6.43;;;16.30;99.90;;;;;;4841214;29;20454;-89
2021/09/24 08:25:35;;;;;;;6.23;5.63;;;16.30;99.90;;;;;;4823900;29;20448;-90
2021/09/24 08:28:01;;;;;;;7.27;6.57;;;16.40;99.90;;;;;;4827748;29;20508;-89
2021/09/24 08:30:28;;;;;;;7.03;6.23;;;16.60;99.90;;;;;;4825923;29;20214;-89
2021/09/24 08:32:55;;;;;;;7.00;6.30;;;16.70;99.90;;;;;;4846895;29;21275;-89
2021/09/24 08:35:22;;;;;;;7.27;6.57;;;16.80;99.90;;;;;;4823891;29;20484;-89
2021/09/24 08:37:49;;;;;;;6.10;5.60;;;16.80;99.90;;;;;;4842039;29;20461;-88
2021/09/24 08:40:16;;;;;;;7.13;6.43;;;16.90;99.90;;;;;;4829167;29;20489;-88
2021/09/24 08:42:42;;;;;;;6.43;5.93;;;17.20;99.90;;;;;;4843176;29;20542;-90
2021/09/24 08:45:20;;;;;;;6.63;5.50;;;17.50;99.90;;;;;;4828963;29;20462;-91
2021/09/24 08:47:46;;;;;;;6.20;5.70;;;17.60;99.90;;;;;;4832407;29;20440;-90
2021/09/24 08:50:12;;;;;;;7.33;6.70;;;17.60;99.90;;;;;;4845137;29;20447;-91
2021/09/24 08:52:39;;;;;;;6.87;6.27;;;17.60;99.90;;;;;;4847241;29;20486;-89
2021/09/24 08:55:08;;;;;;;8.40;7.00;;;17.70;99.90;;;;;;4846497;29;20293;-90
2021/09/24 08:57:35;;;;;;;6.47;5.87;;;18.10;99.90;;;;;;4848263;29;21241;-89
2021/09/24 09:00:03;;;;;;;6.70;6.17;;;18.10;99.90;;;;;;4844459;29;20459;-89
2021/09/24 09:02:29;;;;;;;8.30;7.57;;;18.10;99.90;;;;;;4845843;29;20824;-90
2021/09/24 09:04:58;;;;;;;8.97;8.17;;;18.10;99.90;;;;;;4831275;29;20529;-90
2021/09/24 09:07:46;;;;;;;6.27;5.73;;;18.10;99.90;;;;;;4828917;29;20187;-91
2021/09/24 09:10:14;;;;;;;6.80;6.10;;;18.20;99.90;;;;;;4829476;29;20455;-90
2021/09/24 09:12:40;;;;;;;6.50;5.90;;;18.40;99.90;;;;;;4831315;29;20610;-91
2021/09/24 09:15:14;;;;;;;7.47;6.60;;;18.50;99.90;;;;;;4843726;29;20507;-93
2021/09/24 09:17:50;;;;;;;28.73;26.03;;;18.60;99.90;;;;;;4831477;29;20202;-93
2021/09/24 09:20:20;;;;;;;9.30;7.40;;;18.80;99.90;;;;;;4832561;29;20471;-90
2021/09/24 09:22:49;;;;;;;8.73;7.90;;;19.10;99.90;;;;;;4827497;29;20595;-90
2021/09/24 09:25:32;;;;;;;7.40;6.80;;;19.20;99.90;;;;;;4825498;29;20985;-89
2021/09/24 09:28:05;;;;;;;10.30;5.63;;;19.20;99.90;;;;;;4843864;29;20460;-91
2021/09/24 09:30:46;;;;;;;6.80;6.20;;;19.10;99.90;;;;;;4833597;29;20483;-91
2021/09/24 09:33:18;;;;;;;7.20;6.60;;;19.20;99.90;;;;;;4833250;29;20470;-92
2021/09/24 09:35:53;;;;;;;7.50;6.53;;;19.30;99.90;;;;;;4840034;29;20198;-92
2021/09/24 09:38:23;;;;;;;6.87;6.20;;;19.70;99.90;;;;;;4824516;29;20494;-90
2021/09/24 09:40:54;;;;;;;6.20;5.60;;;19.70;99.90;;;;;;4831304;29;20470;-89
2021/09/24 09:43:22;;;;;;;8.30;6.17;;;19.90;99.90;;;;;;4832929;29;21037;-90
2021/09/24 09:45:49;;;;;;;7.30;6.53;;;20.20;99.90;;;;;;4843965;29;20447;-90
2021/09/24 09:48:15;;;;;;;6.60;5.90;;;20.20;99.90;;;;;;4824234;29;20460;-89
2021/09/24 09:50:41;;;;;;;6.07;5.57;;;20.20;99.90;;;;;;4845811;29;20479;-89
2021/09/24 09:53:10;;;;;;;5.80;5.40;;;20.70;99.70;;;;;;4831339;29;20449;-90
2021/09/24 09:55:39;;;;;;;5.63;5.23;;;21.40;99.60;;;;;;4847852;29;20556;-89
2021/09/24 09:58:08;;;;;;;6.63;5.47;;;22.10;98.50;;;;;;4830565;29;20534;-92
2021/09/24 10:00:45;;;;;;;6.50;5.90;;;22.60;96.20;;;;;;4828362;29;20527;-88
2021/09/24 10:03:31;;;;;;;9.33;6.20;;;22.20;95.90;;;;;;4829145;29;20494;-89
2021/09/24 10:05:58;;;;;;;6.40;5.90;;;22.30;96.50;;;;;;4828961;29;20697;-89
2021/09/24 10:08:27;;;;;;;6.83;6.23;;;22.60;97.40;;;;;;4828496;29;20458;-90
2021/09/24 10:11:05;;;;;;;6.47;5.87;;;22.20;95.70;;;;;;4839988;29;20480;-89
2021/09/24 10:13:52;;;;;;;5.80;5.40;;;21.30;97.20;;;;;;4846796;29;20517;-89
2021/09/24 10:16:20;;;;;;;5.50;5.00;;;21.10;97.10;;;;;;4841851;29;21005;-89
2021/09/24 10:18:46;;;;;;;6.40;5.90;;;19.80;98.40;;;;;;4845744;29;20452;-89
2021/09/24 10:21:12;;;;;;;6.70;6.00;;;18.90;99.70;;;;;;4832149;29;20455;-89
2021/09/24 10:23:41;;;;;;;8.20;6.40;;;18.70;99.90;;;;;;4830548;29;20622;-88
2021/09/24 10:26:11;;;;;;;6.47;5.87;;;19.30;99.90;;;;;;4845005;29;20466;-88
2021/09/24 10:28:41;;;;;;;6.40;5.90;;;20.20;99.60;;;;;;4843890;29;20447;-89
2021/09/24 10:31:18;;;;;;;6.30;5.80;;;20.80;99.90;;;;;;4829114;29;20586;-88
2021/09/24 10:33:48;;;;;;;6.20;5.70;;;21.20;97.80;;;;;;4832237;29;20431;-89
2021/09/24 10:36:37;;;;;;;6.27;5.60;;;20.90;97.60;;;;;;4840999;29;20467;-90
2021/09/24 10:39:28;;;;;;;5.60;5.10;;;19.90;98.30;;;;;;4831432;29;20459;-89
2021/09/24 10:42:16;;;;;;;5.03;4.63;;;19.30;98.70;;;;;;4846427;29;20465;-88
2021/09/24 10:44:58;;;;;;;5.30;4.80;;;19.10;99.50;;;;;;4830853;29;20465;-90
2021/09/24 10:47:46;;;;;;;5.10;4.70;;;19.20;99.90;;;;;;4846501;29;20912;-89
2021/09/24 10:50:30;;;;;;;5.50;5.10;;;20.00;98.80;;;;;;4831997;29;20444;-90
2021/09/24 10:53:41;;;;;;;5.77;5.27;;;20.70;97.50;;;;;;4839511;29;20451;-89
2021/09/24 10:55:59;;;;;;;4.63;4.33;;;21.40;97.80;;;;;;4836807;29;20459;-89
2021/09/24 10:58:28;;;;;;;5.10;4.30;;;21.70;95.00;;;;;;4844478;29;20863;-90
2021/09/24 11:01:17;;;;;;;5.40;4.90;;;21.40;95.30;;;;;;4845138;29;20217;-91
2021/09/24 11:03:58;;;;;;;4.67;4.37;;;21.60;95.30;;;;;;4845660;29;20452;-90
2021/09/24 11:06:46;;;;;;;4.73;4.33;;;21.90;94.30;;;;;;4826583;29;20447;-89
2021/09/24 11:09:22;;;;;;;4.90;4.50;;;21.70;94.50;;;;;;4827869;29;20673;-90
2021/09/24 11:12:08;;;;;;;4.80;4.40;;;21.40;95.70;;;;;;4844707;29;20494;-89
2021/09/24 11:14:42;;;;;;;4.63;4.23;;;21.50;96.40;;;;;;4842904;29;20909;-89
2021/09/24 11:17:10;;;;;;;4.57;4.20;;;21.70;94.50;;;;;;4829105;29;20469;-86
2021/09/24 11:19:46;;;;;;;5.93;4.37;;;21.80;94.40;;;;;;4841292;29;20444;-88
2021/09/24 11:25:22;;;;;;;4.67;4.30;;;22.40;92.80;;;;;;4802674;29;20456;-88
2021/09/24 11:27:48;;;;;;;4.80;4.40;;;22.60;93.10;;;;;;4823742;29;20455;-88
2021/09/24 11:30:19;;;;;;;5.20;4.80;;;22.80;91.40;;;;;;4828797;29;20211;-89
2021/09/24 11:32:48;;;;;;;9.20;8.50;;;23.00;91.80;;;;;;4841771;29;21491;-89
2021/09/24 11:35:19;;;;;;;5.50;5.00;;;23.00;92.50;;;;;;4843525;29;20466;-90
2021/09/24 11:37:46;;;;;;;4.20;3.90;;;22.70;92.00;;;;;;4826572;29;20478;-89
2021/09/24 11:40:23;;;;;;;4.20;3.90;;;22.40;92.40;;;;;;4830342;29;20478;-89
2021/09/24 11:42:57;;;;;;;5.00;4.60;;;22.40;91.90;;;;;;4847805;29;20447;-91
2021/09/24 11:45:29;;;;;;;5.27;4.87;;;22.30;92.30;;;;;;4828736;29;20458;-95
2021/09/24 11:48:03;;;;;;;5.10;4.60;;;22.70;92.00;;;;;;4834443;29;20435;-95
2021/09/24 11:50:33;;;;;;;5.80;5.30;;;22.90;92.50;;;;;;4829258;29;20462;-88
2021/09/24 11:53:05;;;;;;;5.07;4.67;;;23.00;91.70;;;;;;4844879;29;20530;-90
2021/09/24 11:55:57;;;;;;;5.03;4.53;;;23.10;90.80;;;;;;4845534;29;20458;-90
2021/09/24 11:58:25;;;;;;;4.50;4.10;;;23.20;90.00;;;;;;4841179;29;20723;-90
2021/09/24 12:00:56;;;;;;;4.23;3.80;;;23.50;90.20;;;;;;4847708;29;20523;-88
2021/09/24 12:03:27;;;;;;;4.63;4.23;;;23.50;90.00;;;;;;4847488;29;22953;-88
2021/09/24 12:05:53;;;;;;;4.87;4.47;;;23.30;89.70;;;;;;4829749;29;20584;-89
2021/09/24 12:08:27;;;;;;;4.50;4.20;;;23.20;88.60;;;;;;4846247;29;20595;-88
2021/09/24 12:11:22;;;;;;;4.70;4.30;;;23.40;89.30;;;;;;4845228;29;20221;-89
2021/09/24 12:13:49;;;;;;;5.00;4.60;;;23.50;88.60;;;;;;4831692;29;20973;-90
2021/09/24 12:16:22;;;;;;;4.87;4.30;;;23.30;88.20;;;;;;4828677;29;20494;-89
2021/09/24 12:18:50;;;;;;;4.33;3.87;;;23.00;89.50;;;;;;4838551;29;20450;-87
2021/09/24 12:21:19;;;;;;;4.77;4.43;;;23.50;89.20;;;;;;4827132;29;22057;-88
2021/09/24 12:23:45;;;;;;;5.50;4.77;;;23.70;88.00;;;;;;4838670;29;20456;-87
2021/09/24 12:26:12;;;;;;;4.60;4.20;;;23.90;86.80;;;;;;4842787;29;20818;-87
2021/09/24 12:28:53;;;;;;;4.90;4.50;;;23.50;86.20;;;;;;4826912;29;20462;-87
2021/09/24 12:31:53;;;;;;;4.30;4.00;;;23.90;88.10;;;;;;4839704;29;20486;-88
2021/09/24 12:34:22;;;;;;;6.17;5.57;;;23.80;87.80;;;;;;4808534;29;20474;-87
2021/09/24 12:37:08;;;;;;;5.40;4.90;;;23.70;87.20;;;;;;4846791;29;20545;-88
2021/09/24 12:39:37;;;;;;;5.87;4.43;;;24.10;87.10;;;;;;4825021;29;20521;-87
2021/09/24 12:42:16;;;;;;;5.43;4.83;;;24.00;86.30;;;;;;4835408;29;20690;-88
2021/09/24 12:44:51;;;;;;;4.63;4.33;;;24.00;88.40;;;;;;4823642;29;20902;-88
2021/09/24 12:47:22;;;;;;;4.30;4.00;;;23.80;87.70;;;;;;4840124;29;20439;-88
2021/09/24 12:49:48;;;;;;;4.93;4.53;;;24.00;86.70;;;;;;4836992;29;20455;-87
2021/09/24 12:52:15;;;;;;;4.30;4.00;;;24.30;85.80;;;;;;4837487;29;20521;-88
2021/09/24 12:54:41;;;;;;;4.73;4.43;;;24.20;84.20;;;;;;4832778;29;20459;-86
2021/09/24 12:57:07;;;;;;;5.23;4.83;;;24.20;84.30;;;;;;4822602;29;21451;-90
2021/09/24 12:59:34;;;;;;;4.77;4.43;;;23.90;86.10;;;;;;4844811;29;20262;-88
2021/09/24 13:02:03;;;;;;;5.17;4.73;;;23.80;88.00;;;;;;4840797;29;20851;-88
2021/09/24 13:04:29;;;;;;;5.30;4.90;;;23.90;86.10;;;;;;4842456;29;20439;-87
2021/09/24 13:06:55;;;;;;;5.00;4.50;;;23.70;85.20;;;;;;4838748;29;20786;-87